sensor_id;sensor_type;location;lat;lon;timestamp;temperature;humidity
3715;DHT22;1873;49.988;8.674;2022-08-25T00:01:51;24.40;61.60
3715;DHT22;1873;49.988;8.674;2022-08-25T00:04:21;24.40;61.70
3715;DHT22;1873;49.988;8.674;2022-08-25T00:06:50;24.40;61.70
3715;DHT22;1873;49.988;8.674;2022-08-25T00:09:30;24.30;61.80
3715;DHT22;1873;49.988;8.674;2022-08-25T00:12:19;24.30;62.30
3715;DHT22;1873;49.988;8.674;2022-08-25T00:14:47;24.30;62.30
3715;DHT22;1873;49.988;8.674;2022-08-25T00:17:15;24.30;62.60
3715;DHT22;1873;49.988;8.674;2022-08-25T00:19:44;24.20;62.70
3715;DHT22;1873;49.988;8.674;2022-08-25T00:22:12;24.10;62.80
3715;DHT22;1873;49.988;8.674;2022-08-25T00:24:41;24.20;63.30
3715;DHT22;1873;49.988;8.674;2022-08-25T00:29:40;24.10;63.20
3715;DHT22;1873;49.988;8.674;2022-08-25T00:32:08;24.10;63.60
3715;DHT22;1873;49.988;8.674;2022-08-25T00:34:37;24.10;63.50
3715;DHT22;1873;49.988;8.674;2022-08-25T00:37:07;24.10;63.30
3715;DHT22;1873;49.988;8.674;2022-08-25T00:39:37;24.10;63.30
3715;DHT22;1873;49.988;8.674;2022-08-25T00:42:06;23.90;63.10
3715;DHT22;1873;49.988;8.674;2022-08-25T00:44:43;23.90;63.80
3715;DHT22;1873;49.988;8.674;2022-08-25T00:47:12;23.90;64.20
3715;DHT22;1873;49.988;8.674;2022-08-25T00:49:44;23.90;64.30
3715;DHT22;1873;49.988;8.674;2022-08-25T00:52:16;23.90;64.30
3715;DHT22;1873;49.988;8.674;2022-08-25T00:54:49;23.90;64.20
3715;DHT22;1873;49.988;8.674;2022-08-25T00:57:22;23.90;64.30
3715;DHT22;1873;49.988;8.674;2022-08-25T01:00:07;24.00;64.10
3715;DHT22;1873;49.988;8.674;2022-08-25T01:02:38;24.10;63.80
3715;DHT22;1873;49.988;8.674;2022-08-25T01:05:07;24.20;63.50
3715;DHT22;1873;49.988;8.674;2022-08-25T01:07:36;24.20;63.60
3715;DHT22;1873;49.988;8.674;2022-08-25T01:10:07;24.20;63.60
3715;DHT22;1873;49.988;8.674;2022-08-25T01:12:45;24.20;63.60
3715;DHT22;1873;49.988;8.674;2022-08-25T01:15:16;24.20;63.70
3715;DHT22;1873;49.988;8.674;2022-08-25T01:17:46;24.20;63.60
3715;DHT22;1873;49.988;8.674;2022-08-25T01:20:16;24.20;63.70
3715;DHT22;1873;49.988;8.674;2022-08-25T01:22:48;24.20;63.70
3715;DHT22;1873;49.988;8.674;2022-08-25T01:25:26;24.20;63.90
3715;DHT22;1873;49.988;8.674;2022-08-25T01:27:58;24.20;63.90
3715;DHT22;1873;49.988;8.674;2022-08-25T01:30:28;24.10;63.80
3715;DHT22;1873;49.988;8.674;2022-08-25T01:32:56;24.10;63.90
3715;DHT22;1873;49.988;8.674;2022-08-25T01:35:25;24.10;64.00
3715;DHT22;1873;49.988;8.674;2022-08-25T01:37:54;24.10;64.20
3715;DHT22;1873;49.988;8.674;2022-08-25T01:40:31;24.00;63.60
3715;DHT22;1873;49.988;8.674;2022-08-25T01:43:07;24.10;64.50
3715;DHT22;1873;49.988;8.674;2022-08-25T01:45:41;24.10;64.50
3715;DHT22;1873;49.988;8.674;2022-08-25T01:48:10;24.00;64.60
3715;DHT22;1873;49.988;8.674;2022-08-25T01:50:40;24.00;65.10
3715;DHT22;1873;49.988;8.674;2022-08-25T01:53:17;24.00;65.20
3715;DHT22;1873;49.988;8.674;2022-08-25T01:55:46;24.00;65.40
3715;DHT22;1873;49.988;8.674;2022-08-25T01:58:31;24.00;65.40
3715;DHT22;1873;49.988;8.674;2022-08-25T02:01:01;24.00;65.50
3715;DHT22;1873;49.988;8.674;2022-08-25T02:03:30;23.90;65.50
3715;DHT22;1873;49.988;8.674;2022-08-25T02:05:59;23.90;65.70
3715;DHT22;1873;49.988;8.674;2022-08-25T02:08:32;23.90;66.00
3715;DHT22;1873;49.988;8.674;2022-08-25T02:11:01;23.80;65.90
3715;DHT22;1873;49.988;8.674;2022-08-25T02:13:29;23.80;66.30
3715;DHT22;1873;49.988;8.674;2022-08-25T02:16:00;23.70;66.30
3715;DHT22;1873;49.988;8.674;2022-08-25T02:18:28;23.70;66.40
3715;DHT22;1873;49.988;8.674;2022-08-25T02:20:57;23.70;66.50
3715;DHT22;1873;49.988;8.674;2022-08-25T02:23:26;23.60;66.40
3715;DHT22;1873;49.988;8.674;2022-08-25T02:25:56;23.70;66.50
3715;DHT22;1873;49.988;8.674;2022-08-25T02:28:25;23.60;66.60
3715;DHT22;1873;49.988;8.674;2022-08-25T02:30:53;23.60;66.60
3715;DHT22;1873;49.988;8.674;2022-08-25T02:33:27;23.60;66.70
3715;DHT22;1873;49.988;8.674;2022-08-25T02:38:35;23.60;66.20
3715;DHT22;1873;49.988;8.674;2022-08-25T02:41:11;23.50;66.90
3715;DHT22;1873;49.988;8.674;2022-08-25T02:43:40;23.50;67.10
3715;DHT22;1873;49.988;8.674;2022-08-25T02:46:09;23.40;67.40
3715;DHT22;1873;49.988;8.674;2022-08-25T02:48:38;23.30;67.80
3715;DHT22;1873;49.988;8.674;2022-08-25T02:51:08;23.30;68.10
3715;DHT22;1873;49.988;8.674;2022-08-25T02:53:40;23.20;68.30
3715;DHT22;1873;49.988;8.674;2022-08-25T02:56:14;23.30;68.20
3715;DHT22;1873;49.988;8.674;2022-08-25T02:58:44;23.20;68.40
3715;DHT22;1873;49.988;8.674;2022-08-25T03:01:14;23.20;68.60
3715;DHT22;1873;49.988;8.674;2022-08-25T03:03:44;23.20;69.20
3715;DHT22;1873;49.988;8.674;2022-08-25T03:06:15;23.20;68.90
3715;DHT22;1873;49.988;8.674;2022-08-25T03:08:45;23.10;69.10
3715;DHT22;1873;49.988;8.674;2022-08-25T03:11:16;23.10;69.50
3715;DHT22;1873;49.988;8.674;2022-08-25T03:13:45;23.00;69.90
3715;DHT22;1873;49.988;8.674;2022-08-25T03:16:17;23.00;70.00
3715;DHT22;1873;49.988;8.674;2022-08-25T03:18:46;23.00;70.30
3715;DHT22;1873;49.988;8.674;2022-08-25T03:21:16;23.00;70.30
3715;DHT22;1873;49.988;8.674;2022-08-25T03:23:45;23.10;70.30
3715;DHT22;1873;49.988;8.674;2022-08-25T03:26:15;23.00;70.50
3715;DHT22;1873;49.988;8.674;2022-08-25T03:29:02;23.00;71.00
3715;DHT22;1873;49.988;8.674;2022-08-25T03:31:33;23.00;71.60
3715;DHT22;1873;49.988;8.674;2022-08-25T03:34:02;23.00;71.20
3715;DHT22;1873;49.988;8.674;2022-08-25T03:36:31;23.00;71.50
3715;DHT22;1873;49.988;8.674;2022-08-25T03:38:59;22.90;71.70
3715;DHT22;1873;49.988;8.674;2022-08-25T03:41:30;22.90;71.90
3715;DHT22;1873;49.988;8.674;2022-08-25T03:44:00;22.90;72.00
3715;DHT22;1873;49.988;8.674;2022-08-25T03:46:32;22.80;72.40
3715;DHT22;1873;49.988;8.674;2022-08-25T03:49:02;22.90;72.70
3715;DHT22;1873;49.988;8.674;2022-08-25T03:51:32;22.90;72.80
3715;DHT22;1873;49.988;8.674;2022-08-25T03:54:03;22.70;73.10
3715;DHT22;1873;49.988;8.674;2022-08-25T03:56:33;22.70;73.60
3715;DHT22;1873;49.988;8.674;2022-08-25T03:59:01;22.60;73.30
3715;DHT22;1873;49.988;8.674;2022-08-25T04:01:29;22.50;74.30
3715;DHT22;1873;49.988;8.674;2022-08-25T04:03:58;22.20;75.40
3715;DHT22;1873;49.988;8.674;2022-08-25T04:06:26;22.20;75.80
3715;DHT22;1873;49.988;8.674;2022-08-25T04:08:55;22.20;76.10
3715;DHT22;1873;49.988;8.674;2022-08-25T04:11:26;22.20;76.20
3715;DHT22;1873;49.988;8.674;2022-08-25T04:13:58;22.10;75.80
3715;DHT22;1873;49.988;8.674;2022-08-25T04:16:31;22.20;76.50
3715;DHT22;1873;49.988;8.674;2022-08-25T04:19:01;22.30;76.70
3715;DHT22;1873;49.988;8.674;2022-08-25T04:21:31;22.30;76.80
3715;DHT22;1873;49.988;8.674;2022-08-25T04:24:00;22.40;77.10
3715;DHT22;1873;49.988;8.674;2022-08-25T04:26:31;22.40;77.20
3715;DHT22;1873;49.988;8.674;2022-08-25T04:29:03;22.50;77.40
3715;DHT22;1873;49.988;8.674;2022-08-25T04:31:32;22.50;77.60
3715;DHT22;1873;49.988;8.674;2022-08-25T04:34:01;22.60;77.80
3715;DHT22;1873;49.988;8.674;2022-08-25T04:36:43;22.50;77.70
3715;DHT22;1873;49.988;8.674;2022-08-25T04:39:19;22.60;78.00
3715;DHT22;1873;49.988;8.674;2022-08-25T04:41:48;22.70;78.00
3715;DHT22;1873;49.988;8.674;2022-08-25T04:44:18;22.60;77.90
3715;DHT22;1873;49.988;8.674;2022-08-25T04:46:47;22.60;78.20
3715;DHT22;1873;49.988;8.674;2022-08-25T04:49:15;22.70;78.40
3715;DHT22;1873;49.988;8.674;2022-08-25T04:51:46;22.70;78.50
3715;DHT22;1873;49.988;8.674;2022-08-25T04:54:16;22.70;78.80
3715;DHT22;1873;49.988;8.674;2022-08-25T04:56:48;22.70;79.10
3715;DHT22;1873;49.988;8.674;2022-08-25T04:59:26;22.70;79.30
3715;DHT22;1873;49.988;8.674;2022-08-25T05:01:57;22.60;79.50
3715;DHT22;1873;49.988;8.674;2022-08-25T05:04:28;22.60;80.00
3715;DHT22;1873;49.988;8.674;2022-08-25T05:06:57;22.50;80.20
3715;DHT22;1873;49.988;8.674;2022-08-25T05:09:26;22.60;80.60
3715;DHT22;1873;49.988;8.674;2022-08-25T05:12:10;22.60;80.60
3715;DHT22;1873;49.988;8.674;2022-08-25T05:14:41;22.70;80.70
3715;DHT22;1873;49.988;8.674;2022-08-25T05:17:10;22.70;80.90
3715;DHT22;1873;49.988;8.674;2022-08-25T05:19:38;22.60;81.20
3715;DHT22;1873;49.988;8.674;2022-08-25T05:22:06;22.60;81.60
3715;DHT22;1873;49.988;8.674;2022-08-25T05:24:35;22.60;81.80
3715;DHT22;1873;49.988;8.674;2022-08-25T05:27:04;22.60;82.00
3715;DHT22;1873;49.988;8.674;2022-08-25T05:29:32;22.60;82.40
3715;DHT22;1873;49.988;8.674;2022-08-25T05:32:02;22.60;82.50
3715;DHT22;1873;49.988;8.674;2022-08-25T05:34:31;22.60;82.70
3715;DHT22;1873;49.988;8.674;2022-08-25T05:39:40;22.70;82.80
3715;DHT22;1873;49.988;8.674;2022-08-25T05:42:09;22.70;83.50
3715;DHT22;1873;49.988;8.674;2022-08-25T05:44:55;22.70;83.80
3715;DHT22;1873;49.988;8.674;2022-08-25T05:47:41;22.80;83.70
3715;DHT22;1873;49.988;8.674;2022-08-25T05:50:10;22.80;83.90
3715;DHT22;1873;49.988;8.674;2022-08-25T05:53:05;22.90;83.80
3715;DHT22;1873;49.988;8.674;2022-08-25T05:55:33;22.90;84.70
3715;DHT22;1873;49.988;8.674;2022-08-25T05:58:02;22.90;85.10
3715;DHT22;1873;49.988;8.674;2022-08-25T06:00:36;23.00;85.30
3715;DHT22;1873;49.988;8.674;2022-08-25T06:03:05;23.00;85.60
3715;DHT22;1873;49.988;8.674;2022-08-25T06:05:33;23.10;85.80
3715;DHT22;1873;49.988;8.674;2022-08-25T06:08:02;23.10;86.00
3715;DHT22;1873;49.988;8.674;2022-08-25T06:10:33;23.10;86.20
3715;DHT22;1873;49.988;8.674;2022-08-25T06:13:02;23.10;86.30
3715;DHT22;1873;49.988;8.674;2022-08-25T06:15:32;23.10;86.80
3715;DHT22;1873;49.988;8.674;2022-08-25T06:18:00;23.10;87.40
3715;DHT22;1873;49.988;8.674;2022-08-25T06:20:30;23.10;88.20
3715;DHT22;1873;49.988;8.674;2022-08-25T06:25:08;23.10;88.80
3715;DHT22;1873;49.988;8.674;2022-08-25T06:26:33;23.10;90.00
3715;DHT22;1873;49.988;8.674;2022-08-25T06:29:01;23.20;89.80
3715;DHT22;1873;49.988;8.674;2022-08-25T06:31:30;23.20;90.00
3715;DHT22;1873;49.988;8.674;2022-08-25T06:33:58;23.20;90.20
3715;DHT22;1873;49.988;8.674;2022-08-25T06:36:26;23.30;90.40
3715;DHT22;1873;49.988;8.674;2022-08-25T06:38:55;23.40;90.50
3715;DHT22;1873;49.988;8.674;2022-08-25T06:41:23;23.50;90.60
3715;DHT22;1873;49.988;8.674;2022-08-25T06:44:04;23.50;90.50
3715;DHT22;1873;49.988;8.674;2022-08-25T06:46:33;23.70;90.00
3715;DHT22;1873;49.988;8.674;2022-08-25T06:49:05;23.90;90.20
3715;DHT22;1873;49.988;8.674;2022-08-25T06:51:37;24.10;90.10
3715;DHT22;1873;49.988;8.674;2022-08-25T06:54:06;24.40;89.40
3715;DHT22;1873;49.988;8.674;2022-08-25T06:56:36;24.60;89.30
3715;DHT22;1873;49.988;8.674;2022-08-25T06:59:07;25.30;86.30
3715;DHT22;1873;49.988;8.674;2022-08-25T07:01:36;26.90;80.90
3715;DHT22;1873;49.988;8.674;2022-08-25T07:04:05;28.60;74.30
3715;DHT22;1873;49.988;8.674;2022-08-25T07:06:40;30.10;68.60
3715;DHT22;1873;49.988;8.674;2022-08-25T07:09:10;31.20;64.40
3715;DHT22;1873;49.988;8.674;2022-08-25T07:12:02;32.00;61.40
3715;DHT22;1873;49.988;8.674;2022-08-25T07:14:33;32.60;58.80
3715;DHT22;1873;49.988;8.674;2022-08-25T07:17:03;33.00;57.50
3715;DHT22;1873;49.988;8.674;2022-08-25T07:19:38;33.20;56.90
3715;DHT22;1873;49.988;8.674;2022-08-25T07:22:06;33.40;56.30
3715;DHT22;1873;49.988;8.674;2022-08-25T07:24:35;33.60;55.30
3715;DHT22;1873;49.988;8.674;2022-08-25T07:27:04;34.00;54.50
3715;DHT22;1873;49.988;8.674;2022-08-25T07:29:34;33.90;54.70
3715;DHT22;1873;49.988;8.674;2022-08-25T07:32:08;33.70;54.90
3715;DHT22;1873;49.988;8.674;2022-08-25T07:34:37;33.00;56.20
3715;DHT22;1873;49.988;8.674;2022-08-25T07:37:22;32.00;58.30
3715;DHT22;1873;49.988;8.674;2022-08-25T07:40:13;31.30;59.90
3715;DHT22;1873;49.988;8.674;2022-08-25T07:42:44;30.90;61.30
3715;DHT22;1873;49.988;8.674;2022-08-25T07:45:14;30.20;63.20
3715;DHT22;1873;49.988;8.674;2022-08-25T07:47:47;29.80;64.60
3715;DHT22;1873;49.988;8.674;2022-08-25T07:50:18;29.40;66.00
3715;DHT22;1873;49.988;8.674;2022-08-25T07:52:47;29.30;66.50
3715;DHT22;1873;49.988;8.674;2022-08-25T07:55:21;29.30;66.50
3715;DHT22;1873;49.988;8.674;2022-08-25T07:57:50;29.40;66.60
3715;DHT22;1873;49.988;8.674;2022-08-25T08:00:25;29.40;66.40
3715;DHT22;1873;49.988;8.674;2022-08-25T08:02:56;29.50;66.60
3715;DHT22;1873;49.988;8.674;2022-08-25T08:05:25;29.60;66.00
3715;DHT22;1873;49.988;8.674;2022-08-25T08:07:54;29.60;66.30
3715;DHT22;1873;49.988;8.674;2022-08-25T08:10:23;29.70;65.80
3715;DHT22;1873;49.988;8.674;2022-08-25T08:13:11;29.90;65.20
3715;DHT22;1873;49.988;8.674;2022-08-25T08:15:46;30.10;64.90
3715;DHT22;1873;49.988;8.674;2022-08-25T08:18:15;30.10;64.60
3715;DHT22;1873;49.988;8.674;2022-08-25T08:20:47;30.20;64.50
3715;DHT22;1873;49.988;8.674;2022-08-25T08:23:16;30.40;64.00
3715;DHT22;1873;49.988;8.674;2022-08-25T08:25:44;30.10;63.60
3715;DHT22;1873;49.988;8.674;2022-08-25T08:28:13;29.80;64.70
3715;DHT22;1873;49.988;8.674;2022-08-25T08:30:42;29.80;64.90
3715;DHT22;1873;49.988;8.674;2022-08-25T08:33:23;29.80;64.70
3715;DHT22;1873;49.988;8.674;2022-08-25T08:35:57;29.50;65.10
3715;DHT22;1873;49.988;8.674;2022-08-25T08:38:31;29.50;65.40
3715;DHT22;1873;49.988;8.674;2022-08-25T08:41:09;29.20;66.20
3715;DHT22;1873;49.988;8.674;2022-08-25T08:44:07;29.10;66.30
3715;DHT22;1873;49.988;8.674;2022-08-25T08:46:42;29.00;66.80
3715;DHT22;1873;49.988;8.674;2022-08-25T08:49:21;29.20;66.20
3715;DHT22;1873;49.988;8.674;2022-08-25T08:51:59;29.60;65.80
3715;DHT22;1873;49.988;8.674;2022-08-25T08:54:33;30.00;64.30
3715;DHT22;1873;49.988;8.674;2022-08-25T08:57:10;30.20;63.60
3715;DHT22;1873;49.988;8.674;2022-08-25T08:59:47;30.40;63.00
3715;DHT22;1873;49.988;8.674;2022-08-25T09:02:24;30.60;62.20
3715;DHT22;1873;49.988;8.674;2022-08-25T09:05:10;30.80;61.60
3715;DHT22;1873;49.988;8.674;2022-08-25T09:07:43;30.80;61.50
3715;DHT22;1873;49.988;8.674;2022-08-25T09:10:14;30.80;60.80
3715;DHT22;1873;49.988;8.674;2022-08-25T09:12:46;30.80;60.30
3715;DHT22;1873;49.988;8.674;2022-08-25T09:15:29;30.80;60.20
3715;DHT22;1873;49.988;8.674;2022-08-25T09:18:21;30.70;60.50
3715;DHT22;1873;49.988;8.674;2022-08-25T09:21:05;30.80;60.30
3715;DHT22;1873;49.988;8.674;2022-08-25T09:23:48;30.90;59.70
3715;DHT22;1873;49.988;8.674;2022-08-25T09:26:30;31.10;59.10
3715;DHT22;1873;49.988;8.674;2022-08-25T09:29:03;31.20;58.30
3715;DHT22;1873;49.988;8.674;2022-08-25T09:31:42;31.30;58.40
3715;DHT22;1873;49.988;8.674;2022-08-25T09:34:17;31.20;58.10
3715;DHT22;1873;49.988;8.674;2022-08-25T09:36:56;31.20;58.90
3715;DHT22;1873;49.988;8.674;2022-08-25T09:39:27;31.00;59.10
3715;DHT22;1873;49.988;8.674;2022-08-25T09:42:06;30.60;59.10
3715;DHT22;1873;49.988;8.674;2022-08-25T09:44:57;30.30;60.30
3715;DHT22;1873;49.988;8.674;2022-08-25T09:47:26;30.20;60.50
3715;DHT22;1873;49.988;8.674;2022-08-25T09:49:57;30.40;60.60
3715;DHT22;1873;49.988;8.674;2022-08-25T09:52:38;30.80;59.70
3715;DHT22;1873;49.988;8.674;2022-08-25T09:55:24;31.00;59.70
3715;DHT22;1873;49.988;8.674;2022-08-25T09:57:55;31.00;59.10
3715;DHT22;1873;49.988;8.674;2022-08-25T10:00:27;30.90;59.20
3715;DHT22;1873;49.988;8.674;2022-08-25T10:03:19;30.80;59.40
3715;DHT22;1873;49.988;8.674;2022-08-25T10:06:03;30.60;59.60
3715;DHT22;1873;49.988;8.674;2022-08-25T10:08:38;30.40;60.40
3715;DHT22;1873;49.988;8.674;2022-08-25T10:11:10;30.50;60.20
3715;DHT22;1873;49.988;8.674;2022-08-25T10:13:42;30.50;63.10
3715;DHT22;1873;49.988;8.674;2022-08-25T10:16:21;30.50;60.30
3715;DHT22;1873;49.988;8.674;2022-08-25T10:19:07;30.20;60.00
3715;DHT22;1873;49.988;8.674;2022-08-25T10:21:37;30.20;61.10
3715;DHT22;1873;49.988;8.674;2022-08-25T10:24:09;30.50;60.30
3715;DHT22;1873;49.988;8.674;2022-08-25T10:26:47;30.70;59.90
3715;DHT22;1873;49.988;8.674;2022-08-25T10:29:36;30.80;60.70
3715;DHT22;1873;49.988;8.674;2022-08-25T10:32:15;30.70;59.80
3715;DHT22;1873;49.988;8.674;2022-08-25T10:34:47;30.70;61.60
3715;DHT22;1873;49.988;8.674;2022-08-25T10:37:27;30.80;60.00
3715;DHT22;1873;49.988;8.674;2022-08-25T10:40:11;30.70;59.40
3715;DHT22;1873;49.988;8.674;2022-08-25T10:42:47;30.60;59.40
3715;DHT22;1873;49.988;8.674;2022-08-25T10:45:22;30.70;59.70
3715;DHT22;1873;49.988;8.674;2022-08-25T10:48:42;31.00;59.00
3715;DHT22;1873;49.988;8.674;2022-08-25T10:54:31;30.60;59.40
3715;DHT22;1873;49.988;8.674;2022-08-25T10:57:12;30.60;59.30
3715;DHT22;1873;49.988;8.674;2022-08-25T10:59:51;30.60;58.70
3715;DHT22;1873;49.988;8.674;2022-08-25T11:02:54;30.60;58.80
3715;DHT22;1873;49.988;8.674;2022-08-25T11:05:29;30.30;59.40
3715;DHT22;1873;49.988;8.674;2022-08-25T11:08:06;30.30;60.30
3715;DHT22;1873;49.988;8.674;2022-08-25T11:10:41;30.40;58.50
3715;DHT22;1873;49.988;8.674;2022-08-25T11:13:21;30.40;58.50
3715;DHT22;1873;49.988;8.674;2022-08-25T11:15:54;30.50;59.50
3715;DHT22;1873;49.988;8.674;2022-08-25T11:18:50;30.50;58.70
3715;DHT22;1873;49.988;8.674;2022-08-25T11:21:23;30.50;58.90
3715;DHT22;1873;49.988;8.674;2022-08-25T11:23:59;30.60;59.20
3715;DHT22;1873;49.988;8.674;2022-08-25T11:26:34;30.80;59.90
3715;DHT22;1873;49.988;8.674;2022-08-25T11:29:12;30.90;59.30
3715;DHT22;1873;49.988;8.674;2022-08-25T11:31:43;30.70;58.00
3715;DHT22;1873;49.988;8.674;2022-08-25T11:34:20;30.40;58.40
3715;DHT22;1873;49.988;8.674;2022-08-25T11:36:51;30.40;58.30
3715;DHT22;1873;49.988;8.674;2022-08-25T11:39:34;30.40;58.20
3715;DHT22;1873;49.988;8.674;2022-08-25T11:42:17;30.40;59.50
3715;DHT22;1873;49.988;8.674;2022-08-25T11:45:02;30.70;57.90
3715;DHT22;1873;49.988;8.674;2022-08-25T11:47:53;30.80;57.70
3715;DHT22;1873;49.988;8.674;2022-08-25T11:50:55;30.90;57.00
3715;DHT22;1873;49.988;8.674;2022-08-25T11:53:26;31.00;57.00
3715;DHT22;1873;49.988;8.674;2022-08-25T11:55:57;31.00;56.60
3715;DHT22;1873;49.988;8.674;2022-08-25T11:58:40;32.30;57.20
3715;DHT22;1873;49.988;8.674;2022-08-25T12:04:35;30.80;56.20
3715;DHT22;1873;49.988;8.674;2022-08-25T12:10:56;30.80;54.00
3715;DHT22;1873;49.988;8.674;2022-08-25T12:13:43;30.40;54.50
3715;DHT22;1873;49.988;8.674;2022-08-25T12:16:42;29.60;54.50
3715;DHT22;1873;49.988;8.674;2022-08-25T12:19:24;30.30;54.40
3715;DHT22;1873;49.988;8.674;2022-08-25T12:21:57;30.30;54.50
3715;DHT22;1873;49.988;8.674;2022-08-25T12:24:49;30.40;54.00
3715;DHT22;1873;49.988;8.674;2022-08-25T12:27:23;30.30;54.10
3715;DHT22;1873;49.988;8.674;2022-08-25T12:29:58;30.20;54.90
3715;DHT22;1873;49.988;8.674;2022-08-25T12:35:36;30.00;54.70
3715;DHT22;1873;49.988;8.674;2022-08-25T12:38:10;29.90;55.30
3715;DHT22;1873;49.988;8.674;2022-08-25T12:40:56;29.80;53.90
3715;DHT22;1873;49.988;8.674;2022-08-25T12:43:28;29.90;54.30
3715;DHT22;1873;49.988;8.674;2022-08-25T12:46:31;29.90;54.30
3715;DHT22;1873;49.988;8.674;2022-08-25T12:49:01;29.90;55.30
3715;DHT22;1873;49.988;8.674;2022-08-25T12:51:50;29.90;55.00
3715;DHT22;1873;49.988;8.674;2022-08-25T12:54:37;30.00;55.40
3715;DHT22;1873;49.988;8.674;2022-08-25T12:57:28;30.10;54.50
3715;DHT22;1873;49.988;8.674;2022-08-25T13:00:36;30.10;54.60
3715;DHT22;1873;49.988;8.674;2022-08-25T13:03:32;30.20;53.60
3715;DHT22;1873;49.988;8.674;2022-08-25T13:06:17;30.30;54.00
3715;DHT22;1873;49.988;8.674;2022-08-25T13:12:44;30.20;53.40
3715;DHT22;1873;49.988;8.674;2022-08-25T13:15:26;30.20;50.90
3715;DHT22;1873;49.988;8.674;2022-08-25T13:18:12;30.30;48.90
3715;DHT22;1873;49.988;8.674;2022-08-25T13:20:42;30.30;49.20
3715;DHT22;1873;49.988;8.674;2022-08-25T13:23:16;30.20;51.20
3715;DHT22;1873;49.988;8.674;2022-08-25T13:25:51;30.20;51.20
3715;DHT22;1873;49.988;8.674;2022-08-25T13:28:27;30.10;51.50
3715;DHT22;1873;49.988;8.674;2022-08-25T13:31:02;30.10;52.30
3715;DHT22;1873;49.988;8.674;2022-08-25T13:33:32;30.00;52.90
3715;DHT22;1873;49.988;8.674;2022-08-25T13:36:02;29.90;52.40
3715;DHT22;1873;49.988;8.674;2022-08-25T13:38:48;30.00;52.20
3715;DHT22;1873;49.988;8.674;2022-08-25T13:41:34;30.20;52.60
3715;DHT22;1873;49.988;8.674;2022-08-25T13:44:02;30.40;51.70
3715;DHT22;1873;49.988;8.674;2022-08-25T13:46:31;30.40;51.10
3715;DHT22;1873;49.988;8.674;2022-08-25T13:49:03;30.40;52.30
3715;DHT22;1873;49.988;8.674;2022-08-25T13:51:50;30.40;52.10
3715;DHT22;1873;49.988;8.674;2022-08-25T13:54:24;30.30;52.50
3715;DHT22;1873;49.988;8.674;2022-08-25T13:57:04;30.40;52.50
3715;DHT22;1873;49.988;8.674;2022-08-25T13:59:40;30.30;52.70
3715;DHT22;1873;49.988;8.674;2022-08-25T14:02:42;30.30;52.80
3715;DHT22;1873;49.988;8.674;2022-08-25T14:05:29;30.30;53.00
3715;DHT22;1873;49.988;8.674;2022-08-25T14:08:02;30.20;53.20
3715;DHT22;1873;49.988;8.674;2022-08-25T14:11:02;30.20;52.70
3715;DHT22;1873;49.988;8.674;2022-08-25T14:13:45;30.20;52.30
3715;DHT22;1873;49.988;8.674;2022-08-25T14:16:19;32.80;54.10
3715;DHT22;1873;49.988;8.674;2022-08-25T14:18:53;30.20;53.70
3715;DHT22;1873;49.988;8.674;2022-08-25T14:25:42;28.20;52.50
3715;DHT22;1873;49.988;8.674;2022-08-25T14:28:13;29.80;54.20
3715;DHT22;1873;49.988;8.674;2022-08-25T14:30:48;29.90;52.30
3715;DHT22;1873;49.988;8.674;2022-08-25T14:33:19;30.00;52.10
3715;DHT22;1873;49.988;8.674;2022-08-25T14:35:51;30.00;52.60
3715;DHT22;1873;49.988;8.674;2022-08-25T14:38:21;30.00;53.00
3715;DHT22;1873;49.988;8.674;2022-08-25T14:40:50;29.90;53.20
3715;DHT22;1873;49.988;8.674;2022-08-25T14:43:19;30.10;53.10
3715;DHT22;1873;49.988;8.674;2022-08-25T14:45:59;30.10;53.10
3715;DHT22;1873;49.988;8.674;2022-08-25T14:48:33;30.00;54.00
3715;DHT22;1873;49.988;8.674;2022-08-25T14:51:03;29.90;54.00
3715;DHT22;1873;49.988;8.674;2022-08-25T14:53:32;29.90;54.40
3715;DHT22;1873;49.988;8.674;2022-08-25T14:56:03;30.10;53.80
3715;DHT22;1873;49.988;8.674;2022-08-25T14:58:36;30.20;54.20
3715;DHT22;1873;49.988;8.674;2022-08-25T15:01:25;30.20;54.10
3715;DHT22;1873;49.988;8.674;2022-08-25T15:04:00;30.40;53.70
3715;DHT22;1873;49.988;8.674;2022-08-25T15:06:31;30.40;54.10
3715;DHT22;1873;49.988;8.674;2022-08-25T15:09:03;30.30;54.40
3715;DHT22;1873;49.988;8.674;2022-08-25T15:11:36;30.30;54.10
3715;DHT22;1873;49.988;8.674;2022-08-25T15:14:08;30.20;54.40
3715;DHT22;1873;49.988;8.674;2022-08-25T15:16:41;30.10;54.10
3715;DHT22;1873;49.988;8.674;2022-08-25T15:19:12;30.10;54.00
3715;DHT22;1873;49.988;8.674;2022-08-25T15:21:42;30.10;53.70
3715;DHT22;1873;49.988;8.674;2022-08-25T15:24:12;30.30;53.20
3715;DHT22;1873;49.988;8.674;2022-08-25T15:26:49;30.30;53.60
3715;DHT22;1873;49.988;8.674;2022-08-25T15:29:24;30.20;53.80
3715;DHT22;1873;49.988;8.674;2022-08-25T15:32:05;30.00;54.20
3715;DHT22;1873;49.988;8.674;2022-08-25T15:34:47;30.00;54.10
3715;DHT22;1873;49.988;8.674;2022-08-25T15:37:15;29.90;53.70
3715;DHT22;1873;49.988;8.674;2022-08-25T15:39:47;30.00;53.10
3715;DHT22;1873;49.988;8.674;2022-08-25T15:42:17;30.00;52.80
3715;DHT22;1873;49.988;8.674;2022-08-25T15:44:47;30.10;53.10
3715;DHT22;1873;49.988;8.674;2022-08-25T15:47:22;30.10;53.20
3715;DHT22;1873;49.988;8.674;2022-08-25T15:50:00;30.10;52.50
3715;DHT22;1873;49.988;8.674;2022-08-25T15:52:29;30.10;52.00
3715;DHT22;1873;49.988;8.674;2022-08-25T15:55:17;31.70;53.10
3715;DHT22;1873;49.988;8.674;2022-08-25T15:57:55;30.10;52.70
3715;DHT22;1873;49.988;8.674;2022-08-25T16:00:29;30.10;53.00
3715;DHT22;1873;49.988;8.674;2022-08-25T16:02:59;30.00;53.40
3715;DHT22;1873;49.988;8.674;2022-08-25T16:05:28;29.90;52.50
3715;DHT22;1873;49.988;8.674;2022-08-25T16:07:57;30.00;52.20
3715;DHT22;1873;49.988;8.674;2022-08-25T16:10:25;30.10;51.90
3715;DHT22;1873;49.988;8.674;2022-08-25T16:12:53;30.00;51.10
3715;DHT22;1873;49.988;8.674;2022-08-25T16:15:29;30.00;51.60
3715;DHT22;1873;49.988;8.674;2022-08-25T16:18:01;29.90;52.40
3715;DHT22;1873;49.988;8.674;2022-08-25T16:20:43;29.80;52.20
3715;DHT22;1873;49.988;8.674;2022-08-25T16:23:13;29.80;52.20
3715;DHT22;1873;49.988;8.674;2022-08-25T16:25:43;29.80;52.30
3715;DHT22;1873;49.988;8.674;2022-08-25T16:28:15;29.80;52.50
3715;DHT22;1873;49.988;8.674;2022-08-25T16:30:52;29.80;52.30
3715;DHT22;1873;49.988;8.674;2022-08-25T16:41:46;28.00;52.50
3715;DHT22;1873;49.988;8.674;2022-08-25T16:44:18;31.60;54.20
3715;DHT22;1873;49.988;8.674;2022-08-25T16:46:48;29.70;53.40
3715;DHT22;1873;49.988;8.674;2022-08-25T16:49:35;29.80;51.40
3715;DHT22;1873;49.988;8.674;2022-08-25T16:52:05;29.80;51.60
3715;DHT22;1873;49.988;8.674;2022-08-25T16:54:54;29.90;51.30
3715;DHT22;1873;49.988;8.674;2022-08-25T16:57:44;29.80;51.60
3715;DHT22;1873;49.988;8.674;2022-08-25T17:00:15;29.80;51.70
3715;DHT22;1873;49.988;8.674;2022-08-25T17:02:44;29.80;51.60
3715;DHT22;1873;49.988;8.674;2022-08-25T17:05:16;29.70;52.80
3715;DHT22;1873;49.988;8.674;2022-08-25T17:07:45;29.60;52.00
3715;DHT22;1873;49.988;8.674;2022-08-25T17:10:36;29.60;51.90
3715;DHT22;1873;49.988;8.674;2022-08-25T17:13:05;29.60;52.10
3715;DHT22;1873;49.988;8.674;2022-08-25T17:15:38;29.60;51.90
3715;DHT22;1873;49.988;8.674;2022-08-25T17:18:07;29.60;52.00
3715;DHT22;1873;49.988;8.674;2022-08-25T17:20:40;29.60;52.50
3715;DHT22;1873;49.988;8.674;2022-08-25T17:23:11;29.50;53.20
3715;DHT22;1873;49.988;8.674;2022-08-25T17:25:39;29.50;53.60
3715;DHT22;1873;49.988;8.674;2022-08-25T17:28:09;29.50;53.00